createdAt,value
2023-04-27T00:00:01.423Z,4.65
2023-04-27T00:01:11.495Z,4.88
2023-04-27T00:02:14.243Z,4.90
2023-04-27T00:03:18.205Z,4.47
2023-04-27T00:04:21.423Z,4.40
2023-04-27T00:05:25.622Z,4.80
2023-04-27T00:06:28.695Z,4.53
2023-04-27T00:07:32.268Z,4.88
2023-04-27T00:08:35.136Z,4.50
2023-04-27T00:09:38.881Z,4.80
2023-04-27T00:10:43.121Z,4.20
2023-04-27T00:11:46.780Z,4.32
2023-04-27T00:12:49.382Z,4.33
2023-04-27T00:13:53.028Z,4.88
2023-04-27T00:14:55.758Z,4.65
2023-04-27T00:16:01.236Z,4.72
2023-04-27T00:17:03.915Z,5.10
2023-04-27T00:18:07.554Z,4.55
2023-04-27T00:19:10.383Z,4.90
2023-04-27T00:20:14.094Z,4.50
2023-04-27T00:21:16.886Z,4.38
2023-04-27T00:22:20.479Z,5.35
2023-04-27T00:24:26.588Z,4.63
2023-04-27T00:25:29.212Z,4.53
2023-04-27T00:26:34.294Z,4.40
2023-04-27T00:27:36.919Z,4.63
2023-04-27T00:28:40.498Z,4.43
2023-04-27T00:30:46.883Z,4.63
2023-04-27T00:31:49.565Z,4.55
2023-04-27T00:32:53.163Z,4.50
2023-04-27T00:33:55.709Z,4.70
2023-04-27T00:34:59.192Z,4.45
2023-04-27T00:36:02.084Z,5.22
2023-04-27T00:37:05.762Z,4.88
2023-04-27T00:38:08.355Z,4.93
2023-04-27T00:39:12.448Z,4.68
2023-04-27T00:40:15.354Z,4.50
2023-04-27T00:41:18.918Z,4.70
2023-04-27T00:43:28.906Z,4.50
2023-04-27T00:45:42.726Z,4.43
2023-04-27T00:46:45.574Z,5.03
2023-04-27T00:47:49.361Z,4.70
2023-04-27T00:48:52.071Z,4.95
2023-04-27T00:49:56.119Z,4.35
2023-04-27T00:50:58.884Z,4.47
2023-04-27T00:52:02.582Z,4.75
2023-04-27T00:53:07.053Z,4.75
2023-04-27T00:54:11.248Z,5.05
2023-04-27T00:55:13.993Z,5.13
2023-04-27T00:56:17.528Z,5.50
2023-04-27T00:58:24.943Z,5.00
2023-04-27T00:59:27.507Z,4.78
2023-04-27T01:00:31.308Z,4.45
2023-04-27T01:01:34.505Z,5.22
2023-04-27T01:02:38.530Z,4.65
2023-04-27T01:03:43.495Z,4.38
2023-04-27T01:04:47.167Z,5.32
2023-04-27T01:05:49.699Z,5.13
2023-04-27T01:06:53.911Z,5.68
2023-04-27T01:07:56.982Z,4.80
2023-04-27T01:09:00.714Z,5.22
2023-04-27T01:10:04.164Z,4.70
2023-04-27T01:11:08.179Z,5.35
2023-04-27T01:12:10.863Z,5.30
2023-04-27T01:13:14.351Z,4.65
2023-04-27T01:14:19.412Z,4.72
2023-04-27T01:15:21.969Z,4.75
2023-04-27T01:16:25.675Z,5.22
2023-04-27T01:18:32.101Z,4.60
2023-04-27T01:19:34.938Z,4.63
2023-04-27T01:20:39.004Z,4.75
2023-04-27T01:21:41.758Z,4.75
2023-04-27T01:22:45.272Z,4.30
2023-04-27T01:24:52.536Z,5.47
2023-04-27T01:26:58.655Z,5.22
2023-04-27T01:28:01.241Z,4.70
2023-04-27T01:29:04.854Z,4.55
2023-04-27T01:31:12.755Z,5.20
2023-04-27T01:32:15.396Z,5.30
2023-04-27T01:33:19.108Z,5.05
2023-04-27T01:34:21.830Z,5.25
2023-04-27T01:35:28.149Z,5.43
2023-04-27T01:36:32.050Z,4.95
2023-04-27T01:37:35.918Z,5.15
2023-04-27T01:38:38.672Z,5.05
2023-04-27T01:39:43.610Z,5.20
2023-04-27T01:40:46.465Z,5.38
2023-04-27T01:41:50.193Z,5.10
2023-04-27T01:42:52.735Z,4.60
2023-04-27T01:43:56.344Z,5.28
2023-04-27T01:45:00.707Z,5.13
2023-04-27T01:46:08.195Z,4.72
2023-04-27T01:47:10.764Z,5.28
2023-04-27T01:48:14.240Z,5.57
2023-04-27T01:49:17.122Z,5.43
2023-04-27T01:50:21.117Z,5.68
2023-04-27T01:51:23.791Z,5.25
2023-04-27T01:52:27.451Z,4.90
2023-04-27T01:53:30.227Z,5.20
2023-04-27T01:54:33.778Z,4.72
2023-04-27T01:56:41.555Z,5.40
2023-04-27T01:57:44.159Z,5.10
2023-04-27T01:58:47.750Z,4.82
2023-04-27T02:00:53.697Z,5.07
2023-04-27T02:01:57.052Z,4.63
2023-04-27T02:03:01.555Z,4.72
2023-04-27T02:04:04.515Z,5.10
2023-04-27T02:05:08.918Z,5.45
2023-04-27T02:06:11.608Z,4.85
2023-04-27T02:07:15.184Z,5.05
2023-04-27T02:09:21.223Z,5.18
2023-04-27T02:10:24.081Z,4.93
2023-04-27T02:11:29.029Z,4.45
2023-04-27T02:12:32.916Z,5.35
2023-04-27T02:13:36.513Z,5.13
2023-04-27T02:14:39.196Z,4.93
2023-04-27T02:15:42.782Z,5.03
2023-04-27T02:17:48.743Z,4.95
2023-04-27T02:18:54.029Z,4.97
2023-04-27T02:19:57.483Z,5.07
2023-04-27T02:21:00.197Z,5.30
2023-04-27T02:22:03.640Z,4.75
2023-04-27T02:23:07.194Z,4.57
2023-04-27T02:24:11.545Z,4.88
2023-04-27T02:25:14.239Z,5.22
2023-04-27T02:26:19.676Z,4.28
2023-04-27T02:27:23.898Z,4.30
2023-04-27T02:28:27.964Z,5.32
2023-04-27T02:29:31.587Z,5.18
2023-04-27T02:30:35.950Z,5.05
2023-04-27T02:31:38.511Z,5.18
2023-04-27T02:32:42.592Z,5.25
2023-04-27T02:33:45.280Z,5.10
2023-04-27T02:34:48.929Z,4.93
2023-04-27T02:35:51.492Z,5.20
2023-04-27T02:36:54.974Z,5.47
2023-04-27T02:37:57.559Z,5.65
2023-04-27T02:39:01.139Z,4.78
2023-04-27T02:41:07.743Z,4.95
2023-04-27T02:43:15.372Z,4.50
2023-04-27T02:44:18.110Z,5.25
2023-04-27T02:45:21.614Z,4.63
2023-04-27T02:47:27.688Z,5.45
2023-04-27T02:48:31.012Z,4.70
2023-04-27T02:49:36.163Z,4.68
2023-04-27T02:50:42.133Z,5.00
2023-04-27T02:51:45.623Z,5.28
2023-04-27T02:52:48.269Z,4.45
2023-04-27T02:53:54.054Z,4.22
2023-04-27T02:54:56.695Z,4.40
2023-04-27T02:56:00.180Z,4.45
2023-04-27T02:58:06.507Z,4.45
2023-04-27T02:59:10.911Z,5.15
2023-04-27T03:00:15.438Z,4.90
2023-04-27T03:01:18.252Z,5.15
2023-04-27T03:02:21.901Z,5.07
2023-04-27T03:03:24.976Z,5.53
2023-04-27T03:04:29.045Z,5.22
2023-04-27T03:05:32.117Z,4.95
2023-04-27T03:06:35.803Z,4.85
2023-04-27T03:07:38.389Z,4.55
2023-04-27T03:08:41.868Z,4.85
2023-04-27T03:10:47.712Z,4.70
2023-04-27T03:12:53.504Z,4.95
2023-04-27T03:13:56.439Z,5.53
2023-04-27T03:15:01.408Z,5.60
2023-04-27T03:16:05.596Z,5.03
2023-04-27T03:17:09.315Z,5.35
2023-04-27T03:18:11.913Z,4.50
2023-04-27T03:19:15.720Z,5.40
2023-04-27T03:20:18.652Z,5.68
2023-04-27T03:21:22.452Z,5.45
2023-04-27T03:22:25.570Z,4.97
2023-04-27T03:23:29.094Z,5.22
2023-04-27T03:25:34.951Z,4.97
2023-04-27T03:26:37.711Z,4.97
2023-04-27T03:27:41.266Z,5.20
2023-04-27T03:29:47.132Z,4.47
2023-04-27T03:30:51.213Z,4.53
2023-04-27T03:31:54.845Z,4.72
2023-04-27T03:32:58.068Z,5.32
2023-04-27T03:34:01.881Z,4.57
2023-04-27T03:35:05.328Z,4.72
2023-04-27T03:36:10.712Z,4.93
2023-04-27T03:37:13.648Z,4.53
2023-04-27T03:38:17.747Z,4.65
2023-04-27T03:39:20.386Z,4.93
2023-04-27T03:40:24.180Z,4.90
2023-04-27T03:41:26.852Z,4.82
2023-04-27T03:42:30.489Z,4.55
2023-04-27T03:43:33.110Z,5.22
2023-04-27T03:44:36.711Z,4.90
2023-04-27T03:46:43.983Z,4.28
2023-04-27T03:47:46.775Z,4.63
2023-04-27T03:48:50.386Z,4.50
2023-04-27T03:49:53.059Z,4.60
2023-04-27T03:50:56.870Z,4.90
2023-04-27T03:51:59.866Z,4.07
2023-04-27T03:53:03.662Z,4.30
2023-04-27T03:54:07.259Z,3.88
2023-04-27T03:55:10.161Z,3.45
2023-04-27T03:56:13.922Z,3.55
2023-04-27T03:59:21.966Z,3.50
2023-04-27T04:00:25.738Z,3.20
2023-04-27T04:02:33.535Z,3.40
2023-04-27T04:03:36.579Z,3.08
2023-04-27T04:04:40.352Z,3.33
2023-04-27T04:05:43.116Z,2.83
2023-04-27T04:06:46.825Z,3.10
2023-04-27T04:07:49.605Z,3.33
2023-04-27T04:08:53.304Z,3.42
2023-04-27T04:09:56.154Z,3.40
2023-04-27T04:10:59.925Z,3.22
2023-04-27T04:12:02.697Z,3.50
2023-04-27T04:13:06.283Z,2.90
2023-04-27T04:14:09.108Z,3.15
2023-04-27T04:15:12.774Z,3.45
2023-04-27T04:16:16.483Z,3.10
2023-04-27T04:19:26.331Z,3.40
2023-04-27T04:20:30.251Z,2.88
2023-04-27T04:21:32.798Z,3.15
2023-04-27T04:22:36.512Z,3.20
2023-04-27T04:25:48.236Z,2.90
2023-04-27T04:26:52.201Z,2.72
2023-04-27T04:27:54.745Z,2.72
2023-04-27T04:28:58.554Z,2.80
2023-04-27T04:32:09.675Z,3.22
2023-04-27T04:33:13.875Z,2.83
2023-04-27T04:34:17.907Z,3.25
2023-04-27T04:35:22.229Z,3.00
2023-04-27T04:36:24.760Z,2.90
2023-04-27T04:37:28.420Z,3.00
2023-04-27T04:39:34.255Z,2.83
2023-04-27T04:40:40.013Z,2.78
2023-04-27T04:41:42.485Z,2.97
2023-04-27T04:42:46.219Z,3.17
2023-04-27T04:44:53.426Z,3.05
2023-04-27T04:45:56.307Z,2.72
2023-04-27T04:46:59.871Z,3.08
2023-04-27T04:48:02.601Z,2.92
2023-04-27T04:49:06.186Z,2.85
2023-04-27T04:51:14.440Z,2.58
2023-04-27T04:52:17.632Z,3.05
2023-04-27T04:53:21.449Z,3.17
2023-04-27T04:54:24.321Z,2.80
2023-04-27T04:55:29.141Z,2.78
2023-04-27T04:56:35.266Z,2.80
2023-04-27T04:57:38.801Z,3.20
2023-04-27T04:59:44.907Z,3.00
2023-04-27T05:00:48.664Z,2.65
2023-04-27T05:01:51.358Z,3.22
2023-04-27T05:02:55.122Z,3.58
2023-04-27T05:05:01.219Z,3.13
2023-04-27T05:06:07.951Z,3.03
2023-04-27T05:07:14.766Z,3.03
2023-04-27T05:08:17.905Z,3.70
2023-04-27T05:09:21.416Z,3.38
2023-04-27T05:12:29.671Z,3.30
2023-04-27T05:13:33.230Z,3.70
2023-04-27T05:14:35.979Z,3.60
2023-04-27T05:15:39.608Z,3.47
2023-04-27T05:16:42.176Z,3.30
2023-04-27T05:17:46.101Z,3.47
2023-04-27T05:18:48.653Z,4.15
2023-04-27T05:19:52.344Z,3.13
2023-04-27T05:22:00.730Z,3.40
2023-04-27T05:23:03.655Z,3.38
2023-04-27T05:24:08.838Z,3.90
2023-04-27T05:25:12.106Z,4.15
2023-04-27T05:26:16.574Z,4.22
2023-04-27T05:27:19.368Z,4.07
2023-04-27T05:28:22.952Z,3.65
2023-04-27T05:29:27.474Z,4.32
2023-04-27T05:30:29.949Z,4.25
2023-04-27T05:31:33.693Z,3.45
2023-04-27T05:32:37.593Z,4.05
2023-04-27T05:33:41.592Z,3.95
2023-04-27T05:34:46.728Z,4.20
2023-04-27T05:35:50.923Z,4.13
2023-04-27T05:36:54.404Z,3.58
2023-04-27T05:39:01.880Z,4.20
2023-04-27T05:40:05.712Z,3.60
2023-04-27T05:41:09.830Z,4.13
2023-04-27T05:42:12.457Z,3.92
2023-04-27T05:43:15.958Z,4.03
2023-04-27T05:45:22.401Z,4.05
2023-04-27T05:46:25.162Z,4.07
2023-04-27T05:47:28.821Z,3.78
2023-04-27T05:48:31.415Z,4.07
2023-04-27T05:49:35.130Z,4.03
2023-04-27T05:50:37.719Z,4.22
2023-04-27T05:51:41.598Z,4.25
2023-04-27T05:52:44.151Z,4.53
2023-04-27T05:53:49.156Z,3.95
2023-04-27T05:54:52.895Z,4.20
2023-04-27T05:56:58.503Z,3.80
2023-04-27T05:59:12.785Z,3.83
2023-04-27T06:00:19.974Z,3.83
2023-04-27T06:01:22.543Z,4.57
2023-04-27T06:02:26.568Z,3.63
2023-04-27T06:03:30.114Z,3.78
2023-04-27T06:04:34.195Z,3.53
2023-04-27T06:05:37.113Z,3.83
2023-04-27T06:06:59.646Z,3.53
2023-04-27T06:10:10.600Z,3.60
2023-04-27T06:11:14.305Z,3.78
2023-04-27T06:14:40.495Z,3.65
2023-04-27T06:15:44.316Z,3.65
2023-04-27T06:16:46.932Z,3.80
2023-04-27T06:17:50.899Z,3.78
2023-04-27T06:18:53.429Z,3.80
2023-04-27T06:19:57.006Z,3.70
2023-04-27T06:21:01.260Z,3.92
2023-04-27T06:22:05.244Z,4.00
2023-04-27T06:23:07.747Z,3.95
2023-04-27T06:24:13.097Z,4.65
2023-04-27T06:25:15.590Z,3.95
2023-04-27T06:26:19.473Z,5.03
2023-04-27T06:27:22.132Z,3.65
2023-04-27T06:28:26.026Z,4.15
2023-04-27T06:29:48.059Z,3.97
2023-04-27T06:30:51.742Z,4.00
2023-04-27T06:34:01.091Z,4.05
2023-04-27T06:35:03.779Z,3.60
2023-04-27T06:36:07.734Z,3.95
2023-04-27T06:37:10.348Z,3.78
2023-04-27T06:38:14.004Z,3.90
2023-04-27T06:39:19.091Z,3.67
2023-04-27T06:40:21.628Z,4.00
2023-04-27T06:41:26.401Z,3.80
2023-04-27T06:42:28.809Z,4.10
2023-04-27T06:43:32.502Z,3.85
2023-04-27T06:45:38.354Z,3.50
2023-04-27T06:46:42.030Z,4.07
2023-04-27T06:48:48.936Z,3.53
2023-04-27T06:49:51.622Z,3.25
2023-04-27T06:50:55.216Z,3.90
2023-04-27T06:51:58.056Z,4.30
2023-04-27T06:53:01.638Z,3.60
2023-04-27T06:54:04.741Z,3.63
2023-04-27T06:55:10.536Z,3.60
2023-04-27T06:56:14.188Z,3.45
2023-04-27T06:59:22.199Z,3.75
2023-04-27T07:00:26.073Z,3.97
2023-04-27T07:01:28.609Z,3.10
2023-04-27T07:02:32.575Z,3.80
2023-04-27T07:03:37.717Z,3.08
2023-04-27T07:04:40.753Z,3.33
2023-04-27T07:05:44.437Z,2.80
2023-04-27T07:06:48.077Z,3.60
2023-04-27T07:08:53.817Z,2.78
2023-04-27T07:09:58.265Z,3.28
2023-04-27T07:11:03.470Z,3.55
2023-04-27T07:12:06.660Z,3.10
2023-04-27T07:13:11.273Z,3.65
2023-04-27T07:14:14.950Z,3.45
2023-04-27T07:15:18.624Z,3.22
2023-04-27T07:16:21.650Z,3.00
2023-04-27T07:17:25.890Z,2.88
2023-04-27T07:18:29.873Z,3.22
2023-04-27T07:19:33.891Z,3.05
2023-04-27T07:20:38.423Z,3.05
2023-04-27T07:21:41.992Z,2.80
2023-04-27T07:22:45.875Z,3.13
2023-04-27T07:23:49.522Z,3.08
2023-04-27T07:24:52.275Z,3.67
2023-04-27T07:25:56.335Z,2.90
2023-04-27T07:27:02.397Z,3.20
2023-04-27T07:28:06.035Z,3.03
2023-04-27T07:29:25.450Z,3.15
2023-04-27T07:30:31.123Z,3.17
2023-04-27T07:31:34.007Z,3.08
2023-04-27T07:32:38.506Z,3.58
2023-04-27T07:33:41.481Z,3.38
2023-04-27T07:34:52.856Z,3.22
2023-04-27T07:35:57.781Z,3.30
2023-04-27T07:37:00.539Z,3.30
2023-04-27T07:38:04.491Z,3.10
2023-04-27T07:39:08.305Z,2.65
2023-04-27T07:40:16.908Z,3.10
2023-04-27T07:41:20.603Z,3.22
2023-04-27T07:42:25.802Z,3.22
2023-04-27T07:43:28.503Z,2.88
2023-04-27T07:44:32.868Z,3.08
2023-04-27T07:45:39.264Z,3.22
2023-04-27T07:46:43.755Z,3.38
2023-04-27T07:47:47.906Z,3.17
2023-04-27T07:48:51.817Z,3.08
2023-04-27T07:49:55.984Z,3.30
2023-04-27T07:50:58.682Z,3.20
2023-04-27T07:52:02.186Z,2.97
2023-04-27T07:53:04.947Z,3.08
2023-04-27T07:54:08.513Z,2.80
2023-04-27T07:55:12.107Z,2.38
2023-04-27T07:56:14.645Z,2.83
2023-04-27T07:57:18.254Z,3.15
2023-04-27T07:58:23.322Z,3.22
2023-04-27T07:59:29.935Z,3.03
2023-04-27T08:00:33.580Z,3.65
2023-04-27T08:01:36.226Z,2.67
2023-04-27T08:02:40.075Z,2.65
2023-04-27T08:03:43.548Z,2.95
2023-04-27T08:04:47.793Z,3.13
2023-04-27T08:05:51.635Z,2.97
2023-04-27T08:06:55.828Z,3.22
2023-04-27T08:07:59.688Z,2.85
2023-04-27T08:10:09.000Z,2.40
2023-04-27T08:11:11.865Z,2.53
2023-04-27T08:12:15.359Z,2.40
2023-04-27T08:13:18.972Z,2.50
2023-04-27T08:15:26.497Z,2.35
2023-04-27T08:16:30.646Z,2.47
2023-04-27T08:17:33.206Z,2.30
2023-04-27T08:18:37.076Z,2.70
2023-04-27T08:19:40.677Z,2.13
2023-04-27T08:20:43.303Z,2.53
2023-04-27T08:21:46.998Z,2.45
2023-04-27T08:22:53.183Z,1.80
2023-04-27T08:23:56.754Z,2.10
2023-04-27T08:25:00.347Z,2.20
2023-04-27T08:26:03.834Z,2.25
2023-04-27T08:27:07.759Z,2.20
2023-04-27T08:28:10.199Z,2.20
2023-04-27T08:29:26.224Z,2.10
2023-04-27T08:30:33.539Z,2.58
2023-04-27T08:31:36.231Z,2.30
2023-04-27T08:32:40.350Z,2.28
2023-04-27T08:33:42.966Z,2.22
2023-04-27T08:34:46.872Z,2.40
2023-04-27T08:35:49.528Z,2.60
2023-04-27T08:36:54.158Z,2.50
2023-04-27T08:37:57.865Z,2.13
2023-04-27T08:41:20.837Z,2.33
2023-04-27T08:42:25.861Z,2.08
2023-04-27T08:43:34.054Z,2.20
2023-04-27T08:44:40.385Z,2.30
2023-04-27T08:45:50.981Z,2.13
2023-04-27T08:46:55.103Z,2.10
2023-04-27T08:47:58.799Z,2.28
2023-04-27T08:49:01.352Z,2.35
2023-04-27T08:50:05.559Z,2.42
2023-04-27T08:51:11.485Z,2.05
2023-04-27T08:52:16.479Z,1.88
2023-04-27T08:53:19.539Z,2.10
2023-04-27T08:54:23.314Z,2.15
2023-04-27T08:55:27.072Z,2.30
2023-04-27T08:56:31.922Z,2.35
2023-04-27T08:57:34.996Z,2.00
2023-04-27T08:58:39.533Z,2.00
2023-04-27T08:59:42.471Z,1.58
2023-04-27T09:00:49.415Z,2.10
2023-04-27T09:01:54.369Z,1.85
2023-04-27T09:04:02.955Z,1.80
2023-04-27T09:05:07.923Z,1.70
2023-04-27T09:06:10.818Z,1.80
2023-04-27T09:07:15.976Z,1.63
2023-04-27T09:08:18.695Z,1.70
2023-04-27T09:09:25.975Z,1.90
2023-04-27T09:10:29.827Z,1.58
2023-04-27T09:11:35.046Z,1.55
2023-04-27T09:12:38.547Z,2.05
2023-04-27T09:14:46.240Z,1.73
2023-04-27T09:15:52.509Z,1.70
2023-04-27T09:16:57.656Z,1.73
2023-04-27T09:18:01.627Z,1.90
2023-04-27T09:19:04.183Z,1.83
2023-04-27T09:20:12.990Z,2.00
2023-04-27T09:21:24.483Z,1.80
2023-04-27T09:22:27.006Z,1.83
2023-04-27T09:23:31.603Z,1.80
2023-04-27T09:24:35.765Z,1.88
2023-04-27T09:25:39.281Z,1.80
2023-04-27T09:27:46.918Z,1.60
2023-04-27T09:28:52.308Z,1.60
2023-04-27T09:29:54.855Z,1.58
2023-04-27T09:31:01.378Z,2.13
2023-04-27T09:32:16.838Z,1.60
2023-04-27T09:34:28.151Z,1.65
2023-04-27T09:35:34.104Z,1.73
2023-04-27T09:36:38.340Z,1.80
2023-04-27T09:37:41.266Z,1.90
2023-04-27T09:38:44.983Z,1.70
2023-04-27T09:39:48.549Z,2.22
2023-04-27T09:40:54.144Z,1.92
2023-04-27T09:41:57.380Z,1.85
2023-04-27T09:43:03.066Z,2.10
2023-04-27T09:44:09.110Z,2.15
2023-04-27T09:45:12.890Z,1.90
2023-04-27T09:46:18.363Z,1.83
2023-04-27T09:47:21.370Z,2.17
2023-04-27T09:48:26.371Z,1.85
2023-04-27T09:49:29.410Z,1.95
2023-04-27T09:50:38.038Z,1.98
2023-04-27T09:51:41.921Z,2.03
2023-04-27T09:52:45.617Z,1.90
2023-04-27T09:53:54.146Z,2.00
2023-04-27T09:54:59.045Z,2.10
2023-04-27T09:56:17.981Z,1.92
2023-04-27T09:57:32.849Z,2.25
2023-04-27T09:58:55.723Z,2.00
2023-04-27T10:00:14.937Z,2.03
2023-04-27T10:01:29.218Z,2.38
2023-04-27T10:02:53.025Z,1.90
2023-04-27T10:04:29.262Z,1.73
2023-04-27T10:05:52.325Z,1.90
2023-04-27T10:07:02.352Z,1.83
2023-04-27T10:08:07.591Z,1.80
2023-04-27T10:09:11.324Z,1.77
2023-04-27T10:10:19.534Z,1.77
2023-04-27T10:11:23.273Z,1.90
2023-04-27T10:12:28.970Z,1.95
2023-04-27T10:13:33.352Z,1.95
2023-04-27T10:14:36.354Z,2.30
2023-04-27T10:15:41.937Z,2.00
2023-04-27T10:16:55.029Z,1.98
2023-04-27T10:18:05.296Z,1.80
2023-04-27T10:19:10.526Z,2.00
2023-04-27T10:20:14.110Z,1.88
2023-04-27T10:21:17.957Z,2.00
2023-04-27T10:22:20.406Z,2.10
2023-04-27T10:23:25.629Z,1.90
2023-04-27T10:24:38.581Z,1.95
2023-04-27T10:25:43.175Z,2.20
2023-04-27T10:26:47.655Z,2.05
2023-04-27T10:27:53.479Z,1.92
2023-04-27T10:29:06.164Z,1.90
2023-04-27T10:30:12.716Z,1.92
2023-04-27T10:31:16.897Z,2.10
2023-04-27T10:32:26.457Z,2.05
2023-04-27T10:33:29.004Z,2.00
2023-04-27T10:34:37.926Z,1.90
2023-04-27T10:35:44.408Z,2.00
2023-04-27T10:36:48.385Z,2.10
2023-04-27T10:37:53.276Z,2.08
2023-04-27T10:38:57.273Z,2.30
2023-04-27T10:40:10.432Z,2.00
2023-04-27T10:41:15.047Z,1.92
2023-04-27T10:42:29.731Z,1.88
2023-04-27T10:43:35.718Z,2.10
2023-04-27T10:44:39.307Z,2.15
2023-04-27T10:45:43.834Z,2.15
2023-04-27T10:46:52.499Z,1.77
2023-04-27T10:48:02.669Z,1.70
2023-04-27T10:49:07.248Z,1.90
2023-04-27T10:50:13.722Z,1.73
2023-04-27T10:51:16.933Z,2.25
2023-04-27T10:52:20.622Z,1.70
2023-04-27T10:54:28.281Z,2.08
2023-04-27T10:55:32.757Z,1.48
2023-04-27T10:56:35.802Z,2.10
2023-04-27T10:57:47.816Z,2.17
2023-04-27T10:58:51.303Z,1.77
2023-04-27T10:59:55.704Z,1.88
2023-04-27T11:00:59.210Z,1.90
2023-04-27T11:02:02.158Z,1.83
2023-04-27T11:03:16.778Z,1.85
2023-04-27T11:04:19.931Z,1.88
2023-04-27T11:05:29.407Z,1.70
2023-04-27T11:06:33.641Z,1.90
2023-04-27T11:07:37.518Z,1.65
2023-04-27T11:08:46.243Z,2.10
2023-04-27T11:09:49.870Z,1.70
2023-04-27T11:10:54.156Z,1.70
2023-04-27T11:11:56.668Z,1.88
2023-04-27T11:13:00.619Z,1.92
2023-04-27T11:14:04.437Z,1.80
2023-04-27T11:15:08.626Z,1.65
2023-04-27T11:16:12.423Z,2.13
2023-04-27T11:17:15.148Z,2.00
2023-04-27T11:18:21.914Z,1.65
2023-04-27T11:19:25.780Z,1.90
2023-04-27T11:20:28.381Z,1.67
2023-04-27T11:21:32.724Z,1.80
2023-04-27T11:22:36.384Z,2.35
2023-04-27T11:23:41.276Z,1.70
2023-04-27T11:24:50.207Z,1.90
2023-04-27T11:25:53.181Z,1.90
2023-04-27T11:26:57.040Z,1.70
2023-04-27T11:27:59.642Z,1.80
2023-04-27T11:29:06.630Z,1.70
2023-04-27T11:30:21.751Z,1.88
2023-04-27T11:31:25.357Z,1.80
2023-04-27T11:32:29.045Z,1.83
2023-04-27T11:33:33.285Z,1.60
2023-04-27T11:34:43.051Z,2.00
2023-04-27T11:37:10.743Z,1.98
2023-04-27T11:38:22.387Z,1.95
2023-04-27T11:39:27.586Z,2.13
2023-04-27T11:40:32.835Z,2.30
2023-04-27T11:41:36.139Z,2.67
2023-04-27T11:42:43.657Z,1.92
2023-04-27T11:43:49.775Z,1.70
2023-04-27T11:44:54.420Z,1.80
2023-04-27T11:45:59.225Z,1.77
2023-04-27T11:47:04.405Z,2.22
2023-04-27T11:48:14.167Z,2.38
2023-04-27T11:49:19.286Z,2.63
2023-04-27T11:50:25.545Z,2.78
2023-04-27T11:51:31.725Z,2.65
2023-04-27T11:52:35.128Z,2.70
2023-04-27T11:53:40.346Z,2.88
2023-04-27T11:54:57.138Z,3.45
2023-04-27T11:56:01.836Z,2.90
2023-04-27T11:57:09.518Z,3.13
2023-04-27T11:58:16.003Z,3.30
2023-04-27T11:59:21.254Z,3.38
2023-04-27T12:00:25.032Z,3.30
2023-04-27T12:01:37.071Z,3.25
2023-04-27T12:02:43.217Z,3.22
2023-04-27T12:03:46.199Z,3.60
2023-04-27T12:04:51.773Z,3.72
2023-04-27T12:05:54.937Z,3.20
2023-04-27T12:06:58.824Z,2.40
2023-04-27T12:08:02.340Z,2.30
2023-04-27T12:09:06.429Z,2.30
2023-04-27T12:10:09.739Z,1.80
2023-04-27T12:11:13.762Z,1.90
2023-04-27T12:12:18.566Z,1.83
2023-04-27T12:13:21.323Z,2.10
2023-04-27T12:14:25.203Z,2.15
2023-04-27T12:15:27.799Z,1.80
2023-04-27T12:16:31.448Z,2.00
2023-04-27T12:17:34.220Z,2.03
2023-04-27T12:18:37.937Z,2.22
2023-04-27T12:19:41.575Z,2.47
2023-04-27T12:21:49.992Z,1.83
2023-04-27T12:22:53.646Z,2.00
2023-04-27T12:23:56.289Z,2.03
2023-04-27T12:25:00.045Z,2.30
2023-04-27T12:26:03.217Z,2.30
2023-04-27T12:27:07.805Z,2.50
2023-04-27T12:28:12.333Z,2.50
2023-04-27T12:29:16.319Z,2.67
2023-04-27T12:30:20.160Z,2.03
2023-04-27T12:31:27.727Z,2.40
2023-04-27T12:32:32.104Z,2.35
2023-04-27T12:33:34.750Z,2.75
2023-04-27T12:34:39.676Z,2.80
2023-04-27T12:35:42.262Z,2.28
2023-04-27T12:36:47.506Z,2.55
2023-04-27T12:37:50.387Z,2.45
2023-04-27T12:38:53.924Z,2.00
2023-04-27T12:39:56.660Z,2.10
2023-04-27T12:41:03.327Z,2.40
2023-04-27T12:42:06.063Z,2.03
2023-04-27T12:43:11.208Z,2.00
2023-04-27T12:44:15.715Z,1.95
2023-04-27T12:45:18.831Z,2.15
2023-04-27T12:46:22.467Z,2.28
2023-04-27T12:47:43.085Z,2.40
2023-04-27T12:48:49.198Z,2.08
2023-04-27T12:49:52.964Z,2.25
2023-04-27T12:50:55.938Z,2.40
2023-04-27T12:52:00.962Z,2.40
2023-04-27T12:53:03.767Z,2.45
2023-04-27T12:54:08.327Z,2.30
2023-04-27T12:55:24.776Z,2.25
2023-04-27T12:56:35.779Z,2.10
2023-04-27T12:57:38.394Z,2.20
2023-04-27T12:58:42.356Z,2.10
2023-04-27T12:59:47.112Z,2.05
2023-04-27T13:00:49.717Z,2.70
2023-04-27T13:01:53.570Z,2.55
2023-04-27T13:02:57.636Z,2.60
2023-04-27T13:04:03.767Z,2.08
2023-04-27T13:05:08.137Z,2.67
2023-04-27T13:06:12.286Z,2.35
2023-04-27T13:07:17.338Z,2.35
2023-04-27T13:08:21.053Z,2.10
2023-04-27T13:09:24.563Z,2.30
2023-04-27T13:10:29.221Z,2.53
2023-04-27T13:11:32.914Z,2.25
2023-04-27T13:12:35.618Z,2.20
2023-04-27T13:13:39.447Z,2.20
2023-04-27T13:14:43.479Z,2.33
2023-04-27T13:15:47.036Z,2.20
2023-04-27T13:16:50.727Z,2.30
2023-04-27T13:17:56.385Z,2.42
2023-04-27T13:19:00.107Z,2.17
2023-04-27T13:20:02.733Z,2.10
2023-04-27T13:21:09.326Z,2.47
2023-04-27T13:22:13.528Z,2.08
2023-04-27T13:23:18.969Z,2.50
2023-04-27T13:24:22.349Z,2.58
2023-04-27T13:26:29.230Z,2.30
2023-04-27T13:27:31.884Z,2.20
2023-04-27T13:28:35.549Z,2.33
2023-04-27T13:29:39.646Z,2.38
2023-04-27T13:30:42.340Z,2.60
2023-04-27T13:31:46.186Z,2.20
2023-04-27T13:32:48.691Z,2.50
2023-04-27T13:33:52.734Z,2.35
2023-04-27T13:34:55.123Z,2.40
2023-04-27T13:35:58.780Z,2.53
2023-04-27T13:37:01.286Z,2.45
2023-04-27T13:38:05.094Z,2.47
2023-04-27T13:39:10.706Z,2.10
2023-04-27T13:40:13.620Z,2.20
2023-04-27T13:41:17.218Z,2.70
2023-04-27T13:42:20.958Z,2.38
2023-04-27T13:43:23.468Z,2.38
2023-04-27T13:44:27.507Z,2.22
2023-04-27T13:45:30.058Z,2.47
2023-04-27T13:46:33.774Z,2.40
2023-04-27T13:47:38.173Z,2.30
2023-04-27T13:48:40.984Z,2.20
2023-04-27T13:49:50.152Z,2.30
2023-04-27T13:50:53.777Z,2.00
2023-04-27T13:52:59.518Z,2.50
2023-04-27T13:54:03.367Z,2.40
2023-04-27T13:55:09.461Z,2.65
2023-04-27T13:56:13.172Z,2.60
2023-04-27T13:59:22.079Z,2.83
2023-04-27T14:00:25.342Z,2.42
2023-04-27T14:01:30.212Z,2.92
2023-04-27T14:02:33.049Z,2.58
2023-04-27T14:03:37.310Z,2.20
2023-04-27T14:04:41.323Z,2.15
2023-04-27T14:05:45.422Z,2.35
2023-04-27T14:06:49.083Z,2.80
2023-04-27T14:08:57.300Z,2.70
2023-04-27T14:10:00.015Z,2.75
2023-04-27T14:11:06.198Z,3.03
2023-04-27T14:12:09.288Z,2.67
2023-04-27T14:13:13.660Z,3.00
2023-04-27T14:14:16.436Z,3.13
2023-04-27T14:15:20.095Z,3.17
2023-04-27T14:16:24.897Z,2.50
2023-04-27T14:17:27.503Z,3.25
2023-04-27T14:18:32.758Z,2.55
2023-04-27T14:19:36.512Z,3.20
2023-04-27T14:20:42.441Z,2.53
2023-04-27T14:21:45.179Z,2.40
2023-04-27T14:22:49.577Z,2.40
2023-04-27T14:23:53.113Z,3.55
2023-04-27T14:24:56.692Z,2.30
2023-04-27T14:27:05.370Z,2.63
2023-04-27T14:28:10.383Z,2.17
2023-04-27T14:29:14.405Z,2.30
2023-04-27T14:30:17.663Z,2.38
2023-04-27T14:31:21.737Z,2.30
2023-04-27T14:32:24.463Z,2.58
2023-04-27T14:33:28.358Z,2.30
2023-04-27T14:34:30.962Z,2.40
2023-04-27T14:35:37.275Z,2.20
2023-04-27T14:36:41.001Z,1.83
2023-04-27T14:38:47.738Z,2.38
2023-04-27T14:39:51.480Z,2.08
2023-04-27T14:40:53.984Z,2.33
2023-04-27T14:41:57.702Z,2.13
2023-04-27T14:43:01.986Z,2.17
2023-04-27T14:44:08.585Z,2.28
2023-04-27T14:45:13.307Z,2.30
2023-04-27T14:46:21.461Z,1.90
2023-04-27T14:47:24.488Z,2.10
2023-04-27T14:48:28.373Z,2.05
2023-04-27T14:49:31.201Z,2.22
2023-04-27T14:50:35.110Z,2.15
2023-04-27T14:53:43.616Z,2.30
2023-04-27T14:54:47.438Z,2.13
2023-04-27T14:55:51.131Z,2.53
2023-04-27T14:56:53.750Z,2.50
2023-04-27T14:57:57.369Z,2.25
2023-04-27T14:59:01.808Z,3.10
2023-04-27T15:00:10.126Z,2.65
2023-04-27T15:01:14.284Z,2.70
2023-04-27T15:02:16.826Z,2.75
2023-04-27T15:03:20.703Z,3.17
2023-04-27T15:04:24.859Z,3.08
2023-04-27T15:05:27.589Z,2.40
2023-04-27T15:06:31.632Z,2.55
2023-04-27T15:07:34.329Z,2.65
2023-04-27T15:08:37.971Z,2.13
2023-04-27T15:09:42.168Z,2.75
2023-04-27T15:10:45.767Z,2.78
2023-04-27T15:11:48.505Z,2.22
2023-04-27T15:12:52.027Z,2.42
2023-04-27T15:13:54.564Z,2.33
2023-04-27T15:14:59.809Z,2.75
2023-04-27T15:16:05.127Z,2.58
2023-04-27T15:17:08.776Z,2.53
2023-04-27T15:18:12.972Z,2.55
2023-04-27T15:19:15.988Z,3.17
2023-04-27T15:20:20.428Z,2.45
2023-04-27T15:21:23.205Z,2.65
2023-04-27T15:22:28.183Z,2.30
2023-04-27T15:23:31.000Z,2.47
2023-04-27T15:24:34.700Z,2.30
2023-04-27T15:26:42.950Z,2.50
2023-04-27T15:27:45.740Z,2.38
2023-04-27T15:28:49.256Z,2.25
2023-04-27T15:29:54.486Z,2.42
2023-04-27T15:30:59.815Z,2.28
2023-04-27T15:32:04.163Z,2.33
2023-04-27T15:33:10.058Z,2.30
2023-04-27T15:34:13.390Z,1.95
2023-04-27T15:35:17.180Z,2.60
2023-04-27T15:36:20.070Z,2.70
2023-04-27T15:37:23.619Z,2.30